createdAt,value
2023-02-16T00:00:17.994Z,97.52
2023-02-16T00:05:42.095Z,97.08
2023-02-16T00:11:06.619Z,96.95
2023-02-16T00:16:21.754Z,97.00
2023-02-16T00:21:28.320Z,97.70
2023-02-16T00:26:34.725Z,98.05
2023-02-16T00:31:38.516Z,97.64
2023-02-16T00:36:42.346Z,97.60
2023-02-16T00:41:54.386Z,97.59
2023-02-16T00:47:01.577Z,97.27
2023-02-16T00:52:37.925Z,97.68
2023-02-16T00:57:48.140Z,98.22
2023-02-16T01:02:53.906Z,98.07
2023-02-16T01:08:17.624Z,98.34
2023-02-16T01:13:21.400Z,98.12
2023-02-16T01:18:25.057Z,98.02
2023-02-16T01:23:29.804Z,98.01
2023-02-16T01:28:39.711Z,98.15
2023-02-16T01:33:43.727Z,97.79
2023-02-16T01:38:47.437Z,98.01
2023-02-16T01:43:59.631Z,97.74
2023-02-16T01:49:03.278Z,97.52
2023-02-16T01:54:23.567Z,97.66
2023-02-16T01:59:50.389Z,98.18
2023-02-16T02:05:38.644Z,98.38
2023-02-16T02:10:55.788Z,98.31
2023-02-16T02:16:00.489Z,98.26
2023-02-16T02:21:55.979Z,98.77
2023-02-16T02:27:11.920Z,98.98
2023-02-16T02:32:47.560Z,98.28
2023-02-16T02:38:24.438Z,98.24
2023-02-16T02:43:53.176Z,98.03
2023-02-16T02:48:58.483Z,98.29
2023-02-16T02:54:26.756Z,99.38
2023-02-16T02:59:56.409Z,99.49
2023-02-16T03:05:02.938Z,99.22
2023-02-16T03:10:27.152Z,98.95
2023-02-16T03:15:31.837Z,98.91
2023-02-16T03:20:54.184Z,98.85
2023-02-16T03:26:16.427Z,98.97
2023-02-16T03:31:28.245Z,99.99
2023-02-16T03:36:35.035Z,99.90
2023-02-16T03:41:50.159Z,99.58
2023-02-16T03:46:54.002Z,99.40
2023-02-16T03:51:57.661Z,99.65
2023-02-16T03:57:01.297Z,99.27
2023-02-16T04:02:05.675Z,99.49
2023-02-16T04:07:09.518Z,99.92
2023-02-16T04:12:32.317Z,99.90
2023-02-16T04:17:37.364Z,99.67
2023-02-16T04:22:41.755Z,99.57
2023-02-16T04:27:46.306Z,99.87
2023-02-16T04:32:50.226Z,99.91
2023-02-16T04:37:53.885Z,99.38
2023-02-16T04:42:58.571Z,99.14
2023-02-16T04:48:02.142Z,98.83
2023-02-16T04:53:05.826Z,99.17
2023-02-16T04:58:09.570Z,99.79
2023-02-16T05:03:13.304Z,99.81
2023-02-16T05:08:20.723Z,99.76
2023-02-16T05:13:43.232Z,99.62
2023-02-16T05:18:47.191Z,99.71
2023-02-16T05:23:50.892Z,99.72
2023-02-16T05:28:55.110Z,99.85
2023-02-16T05:33:58.870Z,99.54
2023-02-16T05:39:02.664Z,99.60
2023-02-16T05:44:09.247Z,99.80
2023-02-16T05:49:14.606Z,100.00
2023-02-16T05:54:18.619Z,100.00
2023-02-16T05:59:22.358Z,100.00
2023-02-16T06:04:26.183Z,100.00
2023-02-16T06:09:32.390Z,100.00
2023-02-16T06:14:36.160Z,99.73
2023-02-16T06:19:39.830Z,99.62
2023-02-16T06:24:43.501Z,99.81
2023-02-16T06:29:47.110Z,100.00
2023-02-16T06:34:50.803Z,100.00
2023-02-16T06:39:54.542Z,100.00
2023-02-16T06:44:58.130Z,100.00
2023-02-16T06:50:02.259Z,100.00
2023-02-16T06:55:07.013Z,100.00
2023-02-16T07:00:11.031Z,100.00
2023-02-16T07:05:14.903Z,100.00
2023-02-16T07:10:20.450Z,100.00
2023-02-16T07:15:24.145Z,100.00
2023-02-16T07:20:30.940Z,100.00
2023-02-16T07:25:36.130Z,100.00
2023-02-16T07:30:41.417Z,100.00
2023-02-16T07:35:45.214Z,100.00
2023-02-16T07:40:48.869Z,100.00
2023-02-16T07:45:52.983Z,100.00
2023-02-16T07:50:56.977Z,100.00
2023-02-16T07:56:00.751Z,100.00
2023-02-16T08:01:10.718Z,100.00
2023-02-16T08:06:15.800Z,100.00
2023-02-16T08:11:24.746Z,100.00
2023-02-16T08:16:29.808Z,100.00
2023-02-16T08:21:34.767Z,100.00
2023-02-16T08:26:41.365Z,100.00
2023-02-16T08:31:47.530Z,100.00
2023-02-16T08:36:57.092Z,100.00
2023-02-16T08:42:02.186Z,100.00
2023-02-16T08:47:12.536Z,100.00
2023-02-16T08:52:17.517Z,100.00
2023-02-16T08:57:22.837Z,100.00
2023-02-16T09:02:26.579Z,100.00
2023-02-16T09:07:37.270Z,100.00
2023-02-16T09:12:41.251Z,100.00
2023-02-16T09:17:45.081Z,100.00
2023-02-16T09:22:48.844Z,100.00
2023-02-16T09:27:53.523Z,100.00
2023-02-16T09:33:00.841Z,100.00
2023-02-16T09:38:04.963Z,100.00
2023-02-16T09:43:59.028Z,100.00
2023-02-16T09:49:15.633Z,100.00
2023-02-16T09:54:37.244Z,100.00
2023-02-16T09:59:59.704Z,99.45
2023-02-16T10:05:13.381Z,98.80
2023-02-16T10:10:35.604Z,97.01
2023-02-16T10:15:41.199Z,96.91
2023-02-16T10:20:47.675Z,96.40
2023-02-16T10:25:57.951Z,96.57
2023-02-16T10:31:06.410Z,96.03
2023-02-16T10:36:32.546Z,95.60
2023-02-16T10:41:46.548Z,94.57
2023-02-16T10:47:04.469Z,93.74
2023-02-16T10:52:08.869Z,91.32
2023-02-16T10:57:34.937Z,93.25
2023-02-16T11:02:48.126Z,93.12
2023-02-16T11:07:58.993Z,92.73
2023-02-16T11:13:06.181Z,92.31
2023-02-16T11:18:30.853Z,88.45
2023-02-16T11:24:05.336Z,90.28
2023-02-16T11:29:34.804Z,90.29
2023-02-16T11:35:16.225Z,90.81
2023-02-16T17:00:20.586Z,83.47
2023-02-16T17:05:27.257Z,83.46
2023-02-16T17:10:35.872Z,83.64
2023-02-16T17:15:48.903Z,83.78
2023-02-16T17:20:55.205Z,83.93
2023-02-16T17:26:00.531Z,84.19
2023-02-16T17:32:18.715Z,84.06
2023-02-16T17:38:11.033Z,84.53
2023-02-16T17:57:59.964Z,85.08
2023-02-16T18:03:07.153Z,85.17
2023-02-16T18:15:04.360Z,85.36
2023-02-16T18:20:14.889Z,85.45
2023-02-16T18:25:28.292Z,85.63
2023-02-16T18:30:48.448Z,85.47
2023-02-16T18:35:58.669Z,85.40
2023-02-16T18:41:04.248Z,86.02
2023-02-16T18:46:12.398Z,85.84
2023-02-16T18:51:18.816Z,86.04
2023-02-16T18:56:31.660Z,86.28
2023-02-16T19:01:37.147Z,86.36
2023-02-16T19:07:38.594Z,86.32
2023-02-16T19:12:44.320Z,86.93
2023-02-16T19:17:51.065Z,86.66
2023-02-16T19:22:57.707Z,86.84
2023-02-16T19:28:10.589Z,86.85
2023-02-16T19:33:19.842Z,86.53
2023-02-16T19:38:25.448Z,86.56
2023-02-16T19:43:30.369Z,86.88
2023-02-16T19:48:37.902Z,86.82
2023-02-16T19:53:47.253Z,86.64
2023-02-16T19:58:55.415Z,86.94
2023-02-16T20:04:03.774Z,86.74
2023-02-16T20:09:14.741Z,86.79
2023-02-16T20:14:25.853Z,86.62
2023-02-16T20:19:36.270Z,86.22
2023-02-16T20:24:42.474Z,86.43
2023-02-16T20:29:47.650Z,86.42
2023-02-16T20:34:56.512Z,86.18
2023-02-16T20:40:02.656Z,86.67
2023-02-16T20:45:10.041Z,86.59
2023-02-16T20:50:17.383Z,86.70
2023-02-16T20:55:22.866Z,86.61
2023-02-16T21:51:38.517Z,87.14
2023-02-16T21:57:30.802Z,87.48
2023-02-16T22:02:34.960Z,87.36
2023-02-16T22:07:39.612Z,87.19
2023-02-16T22:12:43.609Z,87.39
2023-02-16T22:17:49.772Z,87.36
2023-02-16T22:22:53.873Z,87.38
2023-02-16T22:27:57.733Z,87.69
2023-02-16T22:33:01.855Z,87.50
2023-02-16T22:38:05.632Z,87.34
2023-02-16T22:43:09.591Z,87.20
2023-02-16T22:48:13.391Z,87.17
2023-02-16T22:53:17.413Z,87.15
2023-02-16T22:58:21.707Z,86.95
2023-02-16T23:03:25.621Z,87.25
2023-02-16T23:08:29.331Z,87.01
2023-02-16T23:13:34.863Z,87.48
2023-02-16T23:18:40.139Z,87.48
2023-02-16T23:23:44.181Z,88.00
2023-02-16T23:28:55.906Z,88.24
2023-02-16T23:34:02.119Z,88.04
2023-02-16T23:39:09.760Z,88.00
2023-02-16T23:44:15.680Z,88.18
2023-02-16T23:49:41.147Z,88.43
2023-02-16T23:54:44.943Z,88.30
2023-02-16T23:59:48.688Z,88.36
